Time;durP1;ratioP1;P1;durP2;ratioP2;P2;SDS_P1;SDS_P2;PMS_P1;PMS_P2;Temp;Humidity;BMP_temperature;BMP_pressure;BME280_temperature;BME280_humidity;BME280_pressure;Samples;Min_cycle;Max_cycle;Signal;HPM_P1;HPM_P2
2021/10/12 00:01:18;;;;;;;20.13;14.90;;;11.50;99.90;;;;;;5063600;28;20159;-62
2021/10/12 00:03:44;;;;;;;20.53;15.40;;;11.40;99.90;;;;;;5062754;28;20632;-62
2021/10/12 00:06:10;;;;;;;18.43;14.60;;;11.40;99.90;;;;;;5063076;28;20402;-62
2021/10/12 00:08:36;;;;;;;16.97;15.17;;;11.40;99.90;;;;;;5050547;28;20187;-62
2021/10/12 00:11:02;;;;;;;16.20;14.60;;;11.40;99.90;;;;;;5045395;28;20438;-62
2021/10/12 00:13:28;;;;;;;17.50;14.23;;;11.40;99.90;;;;;;5042879;28;20778;-62
2021/10/12 00:15:53;;;;;;;18.17;16.23;;;11.40;99.90;;;;;;5042613;28;20438;-62
2021/10/12 00:18:19;;;;;;;23.10;17.67;;;11.50;99.90;;;;;;5042700;28;20186;-63
2021/10/12 00:20:45;;;;;;;19.77;16.67;;;11.50;99.90;;;;;;5058217;28;20534;-62
2021/10/12 00:23:10;;;;;;;16.20;14.50;;;11.30;99.90;;;;;;5059268;28;20166;-63
2021/10/12 00:25:39;;;;;;;19.10;15.90;;;11.50;99.90;;;;;;5042833;28;20600;-62
2021/10/12 00:28:05;;;;;;;24.40;19.00;;;11.50;99.90;;;;;;5042643;28;20190;-62
2021/10/12 00:30:30;;;;;;;17.97;16.07;;;11.50;99.90;;;;;;5023772;28;20449;-61
2021/10/12 00:32:56;;;;;;;18.83;15.90;;;11.50;99.90;;;;;;5042826;28;20224;-62
2021/10/12 00:35:22;;;;;;;16.60;14.30;;;11.60;99.90;;;;;;5042308;28;20170;-62
2021/10/12 00:37:47;;;;;;;17.87;14.33;;;11.60;99.90;;;;;;5042400;28;20194;-64
2021/10/12 00:40:13;;;;;;;21.47;16.70;;;11.70;99.90;;;;;;5036046;28;20194;-64
2021/10/12 00:42:39;;;;;;;18.77;14.47;;;11.70;99.90;;;;;;5036333;28;20167;-63
2021/10/12 00:45:07;;;;;;;19.97;16.50;;;11.70;99.90;;;;;;5036169;28;20171;-63
2021/10/12 00:47:33;;;;;;;19.63;15.63;;;11.60;99.90;;;;;;5035437;28;20178;-63
2021/10/12 00:49:59;;;;;;;23.43;18.13;;;11.60;99.90;;;;;;5044145;28;20458;-63
2021/10/12 00:52:24;;;;;;;22.83;16.00;;;11.60;99.90;;;;;;5055869;28;20219;-63
2021/10/12 00:54:50;;;;;;;21.67;17.20;;;11.60;99.90;;;;;;5056076;28;20162;-63
2021/10/12 00:57:15;;;;;;;20.33;15.70;;;11.60;99.90;;;;;;5056061;28;20263;-63
2021/10/12 00:59:41;;;;;;;18.53;15.33;;;11.70;99.90;;;;;;5055876;28;20678;-63
2021/10/12 01:02:08;;;;;;;18.93;15.87;;;11.60;99.90;;;;;;5055778;28;20170;-63
2021/10/12 01:04:34;;;;;;;20.60;15.90;;;11.60;99.90;;;;;;5037565;28;20174;-64
2021/10/12 01:07:00;;;;;;;20.20;14.40;;;11.50;99.90;;;;;;5055558;28;20908;-63
2021/10/12 01:09:25;;;;;;;20.53;16.90;;;11.50;99.90;;;;;;5051006;28;20457;-63
2021/10/12 01:11:51;;;;;;;21.60;15.63;;;11.40;99.90;;;;;;5044376;28;20603;-63
2021/10/12 01:14:17;;;;;;;20.93;15.60;;;11.40;99.90;;;;;;5036014;28;20208;-63
2021/10/12 01:16:42;;;;;;;18.10;15.10;;;11.40;99.90;;;;;;5028142;28;20546;-63
2021/10/12 01:19:09;;;;;;;21.70;15.43;;;11.40;99.90;;;;;;5046113;28;20512;-63
2021/10/12 01:21:42;;;;;;;17.80;15.23;;;11.30;99.90;;;;;;5055204;28;20159;-63
2021/10/12 01:24:08;;;;;;;19.50;15.10;;;11.30;99.90;;;;;;5055315;28;20493;-63
2021/10/12 01:26:34;;;;;;;20.87;15.97;;;11.30;99.90;;;;;;5055452;28;20432;-63
2021/10/12 01:29:01;;;;;;;21.63;15.60;;;11.30;99.90;;;;;;5055542;28;20416;-63
2021/10/12 01:31:28;;;;;;;21.87;15.27;;;11.20;99.90;;;;;;5055504;28;20405;-63
2021/10/12 01:33:54;;;;;;;18.90;15.70;;;11.20;99.90;;;;;;5054745;28;20401;-63
2021/10/12 01:36:21;;;;;;;17.27;13.03;;;11.10;99.90;;;;;;5054610;28;20441;-63
2021/10/12 01:38:47;;;;;;;17.43;13.27;;;11.00;99.90;;;;;;5054743;28;20413;-63
2021/10/12 01:41:14;;;;;;;16.77;13.50;;;11.10;99.90;;;;;;5055006;28;20507;-63
2021/10/12 01:43:40;;;;;;;19.50;14.23;;;11.20;99.90;;;;;;5055133;28;20409;-63
2021/10/12 01:46:06;;;;;;;14.77;12.73;;;11.10;99.90;;;;;;5055342;28;20416;-63
2021/10/12 01:48:33;;;;;;;17.20;12.50;;;11.10;99.90;;;;;;5054335;28;20548;-63
2021/10/12 01:50:59;;;;;;;14.57;12.37;;;11.10;99.90;;;;;;5040614;28;20532;-63
2021/10/12 01:53:25;;;;;;;16.40;13.43;;;11.30;99.90;;;;;;5034502;28;20405;-63
2021/10/12 01:55:50;;;;;;;22.53;14.50;;;11.20;99.90;;;;;;5039695;28;20417;-63
2021/10/12 01:58:16;;;;;;;18.27;14.03;;;11.20;99.90;;;;;;5035264;28;20268;-63
2021/10/12 02:00:42;;;;;;;15.70;12.47;;;11.10;99.90;;;;;;5034562;28;20189;-63
2021/10/12 02:03:08;;;;;;;12.93;11.53;;;11.20;99.90;;;;;;5034457;28;20178;-63
2021/10/12 02:05:33;;;;;;;14.53;12.30;;;11.20;99.90;;;;;;5034216;28;20917;-63
2021/10/12 02:07:59;;;;;;;16.50;12.20;;;11.30;99.90;;;;;;5033898;28;20548;-63
2021/10/12 02:10:25;;;;;;;20.60;12.70;;;11.40;99.90;;;;;;5034341;28;20677;-63
2021/10/12 02:12:51;;;;;;;13.50;11.20;;;11.40;99.90;;;;;;5034368;28;20168;-63
2021/10/12 02:15:17;;;;;;;16.00;12.50;;;11.40;99.90;;;;;;5034875;28;20394;-63
2021/10/12 02:17:43;;;;;;;17.00;14.03;;;11.50;99.90;;;;;;5034536;28;20244;-63
2021/10/12 02:20:09;;;;;;;16.43;14.67;;;11.60;99.90;;;;;;5036560;28;20420;-63
2021/10/12 02:22:36;;;;;;;14.03;12.10;;;11.60;99.90;;;;;;5036957;28;20505;-63
2021/10/12 02:25:04;;;;;;;13.30;10.90;;;11.60;99.90;;;;;;5042840;28;20427;-63
2021/10/12 02:27:30;;;;;;;14.43;12.93;;;11.60;99.90;;;;;;5054340;28;20415;-63
2021/10/12 02:29:55;;;;;;;19.80;13.10;;;11.60;99.90;;;;;;5054020;28;21094;-63
2021/10/12 02:32:21;;;;;;;15.60;13.07;;;11.60;99.90;;;;;;5053908;28;20171;-63
2021/10/12 02:34:47;;;;;;;17.97;13.83;;;11.60;99.90;;;;;;5054186;28;20592;-63
2021/10/12 02:37:12;;;;;;;15.33;12.70;;;11.60;99.90;;;;;;5037321;28;20510;-62
2021/10/12 02:39:38;;;;;;;17.83;13.40;;;11.60;99.90;;;;;;5053856;28;20197;-62
2021/10/12 02:42:05;;;;;;;19.10;14.83;;;11.60;99.90;;;;;;5053796;28;20578;-62
2021/10/12 02:44:31;;;;;;;19.90;15.77;;;11.60;99.90;;;;;;5053747;28;20163;-62
2021/10/12 02:46:56;;;;;;;19.63;12.40;;;11.60;99.90;;;;;;5053915;28;20540;-62
2021/10/12 02:49:22;;;;;;;20.30;14.10;;;11.60;99.90;;;;;;5080188;22;20311;-62
2021/10/12 02:51:48;;;;;;;17.83;12.07;;;11.60;99.90;;;;;;5073195;28;20166;-61
2021/10/12 02:54:14;;;;;;;17.90;12.93;;;11.60;99.90;;;;;;5070274;28;20538;-62
2021/10/12 02:56:40;;;;;;;14.07;12.30;;;11.60;99.90;;;;;;5052265;28;20187;-61
2021/10/12 02:59:05;;;;;;;23.87;14.20;;;11.60;99.90;;;;;;5066132;28;20424;-61
2021/10/12 03:01:31;;;;;;;15.23;11.60;;;11.60;99.90;;;;;;5072057;28;20166;-62
2021/10/12 03:03:56;;;;;;;17.67;13.50;;;11.60;99.90;;;;;;5072653;28;20258;-61
2021/10/12 03:06:22;;;;;;;17.17;13.37;;;11.60;99.90;;;;;;5073061;28;20207;-61
2021/10/12 03:08:48;;;;;;;15.00;12.57;;;11.40;99.90;;;;;;5073350;28;20190;-61
2021/10/12 03:11:14;;;;;;;16.33;12.37;;;11.40;99.90;;;;;;5072739;28;20198;-59
2021/10/12 03:13:39;;;;;;;17.10;12.80;;;11.40;99.90;;;;;;5072987;28;20162;-61
2021/10/12 03:16:07;;;;;;;19.90;14.13;;;11.30;99.90;;;;;;5072930;28;20432;-61
2021/10/12 03:18:33;;;;;;;16.00;13.73;;;11.30;99.90;;;;;;5072506;28;20198;-61
2021/10/12 03:20:59;;;;;;;14.23;12.73;;;11.30;99.90;;;;;;5072631;28;20408;-61
2021/10/12 03:23:25;;;;;;;17.07;12.90;;;11.40;99.90;;;;;;5072860;28;20404;-61
2021/10/12 03:25:50;;;;;;;15.27;12.53;;;11.40;99.90;;;;;;5073145;28;20185;-61
2021/10/12 03:28:16;;;;;;;16.93;13.23;;;11.50;99.90;;;;;;5073071;28;20186;-61
2021/10/12 03:30:41;;;;;;;19.13;14.03;;;11.50;99.90;;;;;;5072772;28;20195;-61
2021/10/12 03:33:07;;;;;;;15.73;13.03;;;11.50;99.90;;;;;;5072530;28;20162;-61
2021/10/12 03:35:36;;;;;;;15.63;11.90;;;11.40;99.90;;;;;;5073155;28;20189;-61
2021/10/12 03:38:02;;;;;;;15.10;11.73;;;11.50;99.90;;;;;;5072652;28;20198;-61
2021/10/12 03:40:28;;;;;;;15.67;12.63;;;11.50;99.90;;;;;;5073013;28;20412;-61
2021/10/12 03:42:54;;;;;;;14.40;11.77;;;11.60;99.90;;;;;;5072975;28;20404;-61
2021/10/12 03:45:19;;;;;;;15.80;11.60;;;11.60;99.90;;;;;;5072731;28;20426;-61
2021/10/12 03:47:45;;;;;;;12.73;11.40;;;11.60;99.90;;;;;;5072784;28;20174;-61
2021/10/12 03:50:11;;;;;;;12.67;10.50;;;11.60;99.90;;;;;;5072180;28;20276;-61
2021/10/12 03:52:36;;;;;;;14.50;11.77;;;11.60;99.90;;;;;;5072953;28;20628;-61
2021/10/12 03:55:03;;;;;;;12.67;10.77;;;11.70;99.90;;;;;;5072702;28;20628;-61
2021/10/12 03:57:29;;;;;;;15.03;12.10;;;11.70;99.90;;;;;;5072855;28;20174;-61
2021/10/12 03:59:54;;;;;;;13.17;10.27;;;11.70;99.90;;;;;;5072859;28;20427;-61
2021/10/12 04:02:20;;;;;;;16.27;11.57;;;11.70;99.90;;;;;;5072590;28;20162;-61
2021/10/12 04:04:45;;;;;;;12.20;10.77;;;11.70;99.90;;;;;;5072045;28;20172;-61
2021/10/12 04:07:11;;;;;;;17.20;12.40;;;11.70;99.90;;;;;;5072870;28;20170;-61
2021/10/12 04:09:37;;;;;;;14.63;11.60;;;11.70;99.90;;;;;;5072625;28;20205;-61
2021/10/12 04:12:03;;;;;;;14.70;11.90;;;11.70;99.90;;;;;;5072814;28;20372;-61
2021/10/12 04:14:28;;;;;;;15.50;11.50;;;11.60;99.90;;;;;;5071850;28;20165;-60
2021/10/12 04:16:54;;;;;;;14.00;10.30;;;11.70;99.90;;;;;;5054844;28;20190;-61
2021/10/12 04:19:19;;;;;;;15.57;11.90;;;11.70;99.90;;;;;;5064586;28;20564;-60
2021/10/12 04:21:45;;;;;;;13.00;11.60;;;11.70;99.90;;;;;;5072223;28;20212;-61
2021/10/12 04:24:11;;;;;;;16.93;12.20;;;11.70;99.90;;;;;;5075804;28;20162;-61
2021/10/12 04:26:38;;;;;;;13.57;11.40;;;11.80;99.90;;;;;;5075953;28;20634;-61
2021/10/12 04:29:04;;;;;;;15.73;12.10;;;11.70;99.90;;;;;;5076053;28;20253;-61
2021/10/12 04:31:31;;;;;;;17.33;12.77;;;11.80;99.90;;;;;;5076204;28;20404;-61
2021/10/12 04:33:56;;;;;;;16.00;13.07;;;11.80;99.90;;;;;;5075619;28;20488;-61
2021/10/12 04:36:22;;;;;;;18.40;14.03;;;11.80;99.90;;;;;;5075683;28;20491;-61
2021/10/12 04:38:48;;;;;;;13.17;11.70;;;11.80;99.90;;;;;;5076024;28;20193;-61
2021/10/12 04:41:13;;;;;;;17.43;12.90;;;11.90;99.90;;;;;;5075543;28;20187;-61
2021/10/12 04:43:40;;;;;;;14.17;11.60;;;12.00;99.90;;;;;;5075667;28;20166;-61
2021/10/12 04:46:05;;;;;;;14.60;13.07;;;11.90;99.90;;;;;;5075834;28;20188;-61
2021/10/12 04:48:31;;;;;;;16.97;11.97;;;11.90;99.90;;;;;;5075019;28;20457;-60
2021/10/12 04:50:57;;;;;;;15.63;13.10;;;11.90;99.90;;;;;;5075215;28;20664;-60
2021/10/12 04:53:22;;;;;;;13.70;11.30;;;11.90;99.90;;;;;;5076025;28;20193;-59
2021/10/12 04:55:48;;;;;;;14.17;11.43;;;11.90;99.90;;;;;;5075434;28;20168;-61
2021/10/12 04:58:14;;;;;;;15.13;11.77;;;11.90;99.90;;;;;;5075218;28;20193;-61
2021/10/12 05:00:40;;;;;;;14.63;12.20;;;12.00;99.90;;;;;;5075221;28;20400;-61
2021/10/12 05:03:06;;;;;;;18.20;14.10;;;12.10;99.90;;;;;;5075202;28;20328;-61
2021/10/12 05:05:32;;;;;;;16.73;13.27;;;12.00;99.90;;;;;;5074859;28;20171;-58
2021/10/12 05:07:57;;;;;;;16.30;12.90;;;12.00;99.90;;;;;;5075408;28;20462;-60
2021/10/12 05:10:23;;;;;;;16.23;13.50;;;11.90;99.90;;;;;;5074998;28;20523;-60
2021/10/12 05:12:49;;;;;;;17.70;12.97;;;12.00;99.90;;;;;;5075512;28;20158;-60
2021/10/12 05:15:21;;;;;;;19.40;12.87;;;12.00;99.90;;;;;;5075046;28;20460;-63
2021/10/12 05:17:48;;;;;;;15.93;12.90;;;11.80;99.90;;;;;;5074540;28;20152;-62
2021/10/12 05:20:14;;;;;;;13.43;11.80;;;11.80;99.90;;;;;;5074388;28;20947;-61
2021/10/12 05:22:39;;;;;;;16.43;12.53;;;11.90;99.90;;;;;;5075015;28;20947;-61
2021/10/12 05:25:06;;;;;;;12.30;10.90;;;11.90;99.90;;;;;;5074742;28;20171;-59
2021/10/12 05:27:33;;;;;;;18.43;13.20;;;11.90;99.90;;;;;;5075058;28;20177;-61
2021/10/12 05:29:59;;;;;;;13.87;11.20;;;11.90;99.90;;;;;;5074887;28;20452;-62
2021/10/12 05:32:24;;;;;;;16.87;14.33;;;11.80;99.90;;;;;;5074909;28;20408;-61
2021/10/12 05:34:50;;;;;;;15.23;11.37;;;11.80;99.90;;;;;;5073699;28;20165;-61
2021/10/12 05:37:16;;;;;;;14.43;11.53;;;11.90;99.90;;;;;;5075359;28;20620;-61
2021/10/12 05:39:41;;;;;;;14.00;12.03;;;11.90;99.90;;;;;;5074544;28;20254;-61
2021/10/12 05:42:07;;;;;;;15.90;12.27;;;11.90;99.90;;;;;;5074422;28;20166;-61
2021/10/12 05:44:33;;;;;;;14.23;12.63;;;11.90;99.90;;;;;;5074387;28;20650;-61
2021/10/12 05:46:59;;;;;;;18.73;14.17;;;11.90;99.90;;;;;;5074292;28;20401;-61
2021/10/12 05:49:24;;;;;;;13.07;11.70;;;11.90;99.90;;;;;;5061506;28;20213;-62
2021/10/12 05:51:50;;;;;;;18.23;12.90;;;11.90;99.90;;;;;;5061719;28;20182;-61
2021/10/12 05:54:18;;;;;;;21.00;15.20;;;11.90;99.90;;;;;;5054129;28;20250;-61
2021/10/12 05:56:47;;;;;;;13.20;11.70;;;11.80;99.90;;;;;;5054308;28;20171;-62
2021/10/12 05:59:13;;;;;;;19.87;15.97;;;11.70;99.90;;;;;;5054036;28;20970;-62
2021/10/12 06:01:41;;;;;;;21.40;13.53;;;11.60;99.90;;;;;;5054400;28;20406;-62
2021/10/12 06:04:07;;;;;;;17.57;14.20;;;11.60;99.90;;;;;;5053806;28;20174;-62
2021/10/12 06:06:33;;;;;;;18.47;14.23;;;11.60;99.90;;;;;;5053818;28;20488;-62
2021/10/12 06:08:59;;;;;;;18.93;15.07;;;11.60;99.90;;;;;;5054271;28;20421;-61
2021/10/12 06:11:24;;;;;;;19.60;15.33;;;11.60;99.90;;;;;;5053809;28;20288;-61
2021/10/12 06:13:52;;;;;;;19.00;15.63;;;11.70;99.90;;;;;;5053770;28;20166;-61
2021/10/12 06:16:18;;;;;;;17.43;14.13;;;11.80;99.90;;;;;;5053529;28;20609;-61
2021/10/12 06:18:44;;;;;;;19.73;13.20;;;11.80;99.90;;;;;;5060762;28;20948;-62
2021/10/12 06:21:10;;;;;;;14.23;11.03;;;11.90;99.90;;;;;;5073423;28;20415;-62
2021/10/12 06:23:35;;;;;;;18.00;14.10;;;12.00;99.90;;;;;;5063956;28;20649;-62
2021/10/12 06:26:01;;;;;;;21.93;15.67;;;12.00;99.90;;;;;;5053916;28;20416;-62
2021/10/12 06:28:28;;;;;;;15.40;13.07;;;12.00;99.90;;;;;;5053780;28;20193;-61
2021/10/12 06:30:54;;;;;;;19.20;14.37;;;12.10;99.90;;;;;;5053602;28;20632;-61
2021/10/12 06:33:20;;;;;;;17.07;15.03;;;12.10;99.90;;;;;;5053708;28;20432;-61
2021/10/12 06:35:46;;;;;;;18.30;12.60;;;12.10;99.90;;;;;;5053030;28;20532;-61
2021/10/12 06:38:12;;;;;;;18.63;13.80;;;12.20;99.90;;;;;;5052343;28;20431;-60
2021/10/12 06:40:38;;;;;;;17.73;13.23;;;12.20;99.90;;;;;;5053521;28;20170;-61
2021/10/12 06:43:04;;;;;;;18.13;13.90;;;12.20;99.90;;;;;;5053447;28;20773;-61
2021/10/12 06:45:30;;;;;;;15.53;12.47;;;12.20;99.90;;;;;;5034762;28;20420;-61
2021/10/12 06:47:56;;;;;;;14.37;12.60;;;12.10;99.90;;;;;;5053928;28;20779;-62
2021/10/12 06:50:23;;;;;;;15.63;13.07;;;12.10;99.90;;;;;;5072775;28;20798;-61
2021/10/12 06:52:49;;;;;;;15.37;13.73;;;12.00;99.90;;;;;;5073483;28;20158;-61
2021/10/12 06:55:15;;;;;;;21.70;16.53;;;12.20;99.90;;;;;;5073536;28;20450;-61
2021/10/12 06:57:42;;;;;;;17.10;13.13;;;12.20;99.90;;;;;;5073265;28;20491;-61
2021/10/12 07:00:13;;;;;;;13.73;11.33;;;12.20;99.90;;;;;;5073499;28;20789;-60
2021/10/12 07:02:40;;;;;;;18.67;15.00;;;12.10;99.90;;;;;;5073085;28;20393;-60
2021/10/12 07:05:06;;;;;;;13.40;12.03;;;12.20;99.90;;;;;;5073466;28;20400;-62
2021/10/12 07:07:32;;;;;;;15.30;13.20;;;12.30;99.90;;;;;;5073133;28;20499;-62
2021/10/12 07:09:59;;;;;;;15.67;14.03;;;12.40;99.90;;;;;;5073257;28;21031;-62
2021/10/12 07:12:25;;;;;;;16.50;13.63;;;12.30;99.90;;;;;;5073049;28;20216;-62
2021/10/12 07:14:50;;;;;;;13.57;12.07;;;12.30;99.90;;;;;;5072929;28;20401;-61
2021/10/12 07:17:16;;;;;;;15.57;12.97;;;12.20;99.90;;;;;;5072802;28;20400;-62
2021/10/12 07:19:41;;;;;;;15.83;12.70;;;12.30;99.90;;;;;;5072631;28;20667;-61
2021/10/12 07:22:07;;;;;;;15.27;11.90;;;12.20;99.90;;;;;;5072827;28;20197;-62
2021/10/12 07:24:32;;;;;;;12.23;10.80;;;12.30;99.90;;;;;;5072771;28;20632;-62
2021/10/12 07:26:58;;;;;;;14.90;12.77;;;12.30;99.90;;;;;;5073053;28;20538;-62
2021/10/12 07:29:24;;;;;;;13.63;11.57;;;12.30;99.90;;;;;;5071362;28;20208;-62
2021/10/12 07:31:49;;;;;;;14.00;12.50;;;12.20;99.90;;;;;;5072820;28;20158;-62
2021/10/12 07:34:15;;;;;;;15.00;12.40;;;12.30;99.90;;;;;;5073107;28;20215;-62
2021/10/12 07:36:41;;;;;;;15.43;13.47;;;12.40;99.90;;;;;;5073497;28;20197;-62
2021/10/12 07:39:08;;;;;;;16.37;12.87;;;12.40;99.90;;;;;;5072962;28;20223;-61
2021/10/12 07:41:34;;;;;;;15.60;12.43;;;12.40;99.90;;;;;;5054605;28;20656;-61
2021/10/12 07:44:00;;;;;;;17.33;12.07;;;12.30;99.90;;;;;;5073024;28;20400;-61
2021/10/12 07:46:26;;;;;;;13.67;10.93;;;12.20;99.90;;;;;;5072560;28;20396;-61
2021/10/12 07:48:53;;;;;;;13.97;10.80;;;12.10;99.90;;;;;;5072375;28;20277;-62
2021/10/12 07:51:20;;;;;;;11.77;10.57;;;12.30;99.90;;;;;;5072785;28;20796;-61
2021/10/12 07:53:46;;;;;;;11.70;9.90;;;12.30;99.90;;;;;;5072768;28;20419;-61
2021/10/12 07:56:18;;;;;;;13.63;12.10;;;12.30;99.90;;;;;;5073657;28;20403;-61
2021/10/12 07:58:43;;;;;;;11.40;10.20;;;12.30;99.90;;;;;;5075457;28;20436;-61
2021/10/12 08:01:09;;;;;;;14.07;10.87;;;12.30;99.90;;;;;;5076202;28;20404;-61
2021/10/12 08:03:35;;;;;;;9.70;8.50;;;12.30;99.90;;;;;;5076618;28;20536;-61
2021/10/12 08:06:01;;;;;;;12.73;10.33;;;12.40;99.90;;;;;;5076011;28;20408;-61
2021/10/12 08:08:26;;;;;;;10.97;8.50;;;12.50;99.90;;;;;;5075944;28;20237;-60
2021/10/12 08:10:53;;;;;;;10.27;9.20;;;12.40;99.90;;;;;;5075724;28;20230;-61
2021/10/12 08:13:21;;;;;;;11.67;9.30;;;12.40;99.90;;;;;;5076125;28;20168;-61
2021/10/12 08:15:51;;;;;;;12.17;9.77;;;12.50;99.90;;;;;;5066639;28;20407;-60
2021/10/12 08:18:18;;;;;;;11.37;9.03;;;12.60;99.90;;;;;;5056106;28;20786;-61
2021/10/12 08:20:44;;;;;;;10.20;9.10;;;12.60;99.90;;;;;;5055940;28;20451;-61
2021/10/12 08:23:09;;;;;;;11.40;9.73;;;12.50;99.90;;;;;;5056031;28;20433;-61
2021/10/12 08:25:35;;;;;;;10.27;7.57;;;12.60;99.90;;;;;;5056081;28;20463;-62
2021/10/12 08:28:01;;;;;;;9.87;7.20;;;12.60;99.90;;;;;;5061257;28;20661;-61
2021/10/12 08:30:26;;;;;;;8.33;7.50;;;12.70;99.90;;;;;;5075537;28;20201;-61
2021/10/12 08:32:52;;;;;;;10.53;6.43;;;12.60;99.90;;;;;;5075579;28;20579;-61
2021/10/12 08:35:18;;;;;;;7.90;7.20;;;12.80;99.90;;;;;;5075567;28;20166;-62
2021/10/12 08:37:43;;;;;;;8.73;7.53;;;12.90;99.90;;;;;;5075570;28;20175;-61
2021/10/12 08:40:15;;;;;;;8.07;7.30;;;13.00;99.90;;;;;;5075606;28;20255;-61
2021/10/12 08:42:47;;;;;;;8.57;7.43;;;13.20;99.90;;;;;;5063826;28;20269;-62
2021/10/12 08:45:14;;;;;;;8.47;7.33;;;13.20;99.90;;;;;;5058290;28;20969;-62
2021/10/12 08:47:40;;;;;;;8.30;7.47;;;13.40;99.90;;;;;;5055801;28;20425;-61
2021/10/12 08:50:09;;;;;;;10.43;8.00;;;13.40;99.90;;;;;;5100778;23;20489;-61
2021/10/12 08:52:35;;;;;;;7.40;6.23;;;13.50;99.90;;;;;;5100358;28;20414;-61
2021/10/12 08:55:00;;;;;;;7.67;6.97;;;13.60;99.90;;;;;;5101168;28;20404;-61
2021/10/12 08:57:33;;;;;;;7.17;6.40;;;13.60;99.90;;;;;;5100878;28;20616;-61
2021/10/12 09:00:10;;;;;;;6.70;6.00;;;13.30;99.90;;;;;;5099248;28;20185;-62
2021/10/12 09:02:55;;;;;;;8.60;6.87;;;13.20;99.90;;;;;;5113796;28;20486;-62
2021/10/12 09:05:25;;;;;;;7.03;6.40;;;13.20;99.90;;;;;;5099699;28;20407;-62
2021/10/12 09:07:51;;;;;;;9.43;6.77;;;13.20;99.90;;;;;;5099144;28;20484;-61
2021/10/12 09:10:21;;;;;;;7.60;6.80;;;13.30;99.90;;;;;;5098808;28;20471;-62
2021/10/12 09:12:49;;;;;;;9.80;8.60;;;13.30;99.90;;;;;;5100193;28;20407;-62
2021/10/12 09:15:16;;;;;;;8.50;5.90;;;13.50;99.90;;;;;;5099168;28;20406;-62
2021/10/12 09:17:43;;;;;;;7.20;6.33;;;13.60;99.90;;;;;;5099498;28;20481;-62
2021/10/12 09:20:11;;;;;;;10.80;7.10;;;13.70;99.90;;;;;;5099421;28;20456;-62
2021/10/12 09:23:00;;;;;;;13.50;8.77;;;13.80;99.90;;;;;;5099675;28;20407;-59
2021/10/12 09:25:34;;;;;;;10.20;6.50;;;13.70;99.90;;;;;;5099266;28;20412;-60
2021/10/12 09:28:00;;;;;;;7.90;7.10;;;14.00;99.90;;;;;;5100115;28;20386;-59
2021/10/12 09:30:30;;;;;;;7.90;6.83;;;14.20;99.90;;;;;;5098854;28;21037;-58
2021/10/12 09:33:00;;;;;;;7.43;6.53;;;14.10;99.90;;;;;;5099615;28;20161;-60
2021/10/12 09:35:27;;;;;;;7.80;7.00;;;14.30;99.90;;;;;;5099656;28;20402;-60
2021/10/12 09:38:11;;;;;;;9.40;6.47;;;14.20;99.90;;;;;;5100026;28;20757;-62
2021/10/12 09:40:41;;;;;;;6.90;6.20;;;13.70;99.90;;;;;;5100872;28;20432;-62
2021/10/12 09:43:07;;;;;;;7.80;7.00;;;13.60;99.90;;;;;;5100539;28;20388;-62
2021/10/12 09:45:38;;;;;;;7.23;6.10;;;13.30;99.90;;;;;;5099762;28;20399;-61
2021/10/12 09:48:33;;;;;;;7.70;6.20;;;13.40;99.90;;;;;;5101330;28;20262;-62
2021/10/12 09:51:14;;;;;;;8.40;6.50;;;13.60;99.90;;;;;;5099928;28;20449;-62
2021/10/12 09:53:42;;;;;;;6.37;5.40;;;13.20;99.90;;;;;;5100504;28;20401;-61
2021/10/12 09:56:09;;;;;;;8.00;6.50;;;13.20;99.90;;;;;;5099778;28;20462;-61
2021/10/12 09:58:35;;;;;;;6.67;5.93;;;13.30;99.90;;;;;;5100566;28;20465;-61
2021/10/12 10:01:05;;;;;;;6.20;5.43;;;13.40;99.90;;;;;;5099724;28;20408;-60
2021/10/12 10:03:32;;;;;;;6.60;5.90;;;13.40;99.90;;;;;;5099005;28;20790;-61
2021/10/12 10:06:18;;;;;;;7.20;6.50;;;13.00;99.90;;;;;;5099671;28;20760;-60
2021/10/12 10:08:48;;;;;;;7.70;5.60;;;13.00;99.90;;;;;;5099731;28;20421;-61
2021/10/12 10:11:15;;;;;;;5.27;4.60;;;13.00;99.90;;;;;;5099936;28;20542;-59
2021/10/12 10:13:41;;;;;;;6.00;5.13;;;12.90;99.90;;;;;;5098683;28;20423;-61
2021/10/12 10:16:10;;;;;;;7.17;5.13;;;12.80;99.90;;;;;;5097974;28;20416;-59
2021/10/12 10:18:38;;;;;;;9.57;6.37;;;13.00;99.90;;;;;;5097583;28;20307;-60
2021/10/12 10:21:04;;;;;;;7.50;6.13;;;13.00;99.90;;;;;;5120213;28;20489;-61
2021/10/12 10:23:50;;;;;;;6.83;5.43;;;13.00;99.90;;;;;;5120359;28;20814;-61
2021/10/12 10:26:31;;;;;;;7.77;6.07;;;13.10;99.90;;;;;;5120284;28;20405;-60
2021/10/12 10:29:15;;;;;;;13.30;6.67;;;13.10;99.90;;;;;;5120406;28;20484;-61
2021/10/12 10:31:43;;;;;;;9.03;6.87;;;13.10;99.90;;;;;;5120129;28;20413;-61
2021/10/12 10:34:31;;;;;;;6.60;5.50;;;13.10;99.90;;;;;;5120120;28;20398;-59
2021/10/12 10:37:15;;;;;;;7.87;5.80;;;13.30;99.90;;;;;;5120593;28;20412;-57
2021/10/12 10:39:42;;;;;;;8.07;6.53;;;13.70;99.90;;;;;;5119824;28;20426;-61
2021/10/12 10:42:28;;;;;;;10.40;7.27;;;14.00;99.90;;;;;;5119399;28;20424;-61
2021/10/12 10:45:03;;;;;;;7.50;6.80;;;14.10;99.90;;;;;;5119205;28;20413;-61
2021/10/12 10:47:40;;;;;;;11.50;7.13;;;14.40;99.90;;;;;;5119646;28;20467;-61
2021/10/12 10:50:30;;;;;;;7.30;6.10;;;15.10;99.90;;;;;;5089474;28;20461;-61
2021/10/12 10:52:58;;;;;;;6.67;6.00;;;15.90;99.90;;;;;;5067025;28;20411;-61
2021/10/12 10:55:31;;;;;;;6.30;5.53;;;16.40;99.90;;;;;;5079144;28;20499;-61
2021/10/12 10:58:12;;;;;;;8.50;6.17;;;16.20;99.90;;;;;;5078450;28;20399;-61
2021/10/12 11:00:49;;;;;;;6.80;5.97;;;16.30;99.90;;;;;;5077699;28;20426;-58
2021/10/12 11:03:36;;;;;;;7.43;6.40;;;16.30;99.90;;;;;;5078036;28;20401;-61
2021/10/12 11:06:11;;;;;;;8.53;5.60;;;16.20;99.90;;;;;;5060470;28;20486;-61
2021/10/12 11:08:40;;;;;;;7.53;6.37;;;15.70;99.90;;;;;;5078580;28;20425;-61
2021/10/12 11:11:09;;;;;;;6.73;6.13;;;15.50;99.90;;;;;;5078493;28;20513;-61
2021/10/12 11:13:41;;;;;;;7.90;6.87;;;15.10;99.90;;;;;;5078144;28;20406;-61
2021/10/12 11:16:09;;;;;;;8.33;6.73;;;14.60;99.90;;;;;;5077972;28;20910;-61
2021/10/12 11:18:36;;;;;;;8.27;6.77;;;14.20;99.90;;;;;;5077840;28;20422;-61
2021/10/12 11:21:06;;;;;;;10.03;7.30;;;14.00;99.90;;;;;;5077864;28;20403;-61
2021/10/12 11:23:35;;;;;;;13.70;7.53;;;13.80;99.90;;;;;;5078579;28;20828;-62
2021/10/12 11:26:14;;;;;;;9.67;6.83;;;13.60;99.90;;;;;;5078717;28;20496;-61
2021/10/12 11:28:52;;;;;;;9.50;5.83;;;13.80;99.90;;;;;;5077763;28;20424;-61
2021/10/12 11:31:20;;;;;;;7.63;5.30;;;13.90;99.90;;;;;;5078174;28;20441;-61
2021/10/12 11:33:51;;;;;;;10.03;6.40;;;14.10;99.90;;;;;;5081661;28;20399;-59
2021/10/12 11:36:20;;;;;;;7.50;6.40;;;14.10;99.90;;;;;;5094383;28;20878;-61
2021/10/12 11:38:45;;;;;;;10.87;6.00;;;14.20;99.90;;;;;;5082247;28;20464;-61
2021/10/12 11:41:20;;;;;;;10.10;5.43;;;14.20;99.90;;;;;;5082479;28;20398;-61
2021/10/12 11:43:47;;;;;;;9.67;5.27;;;14.00;99.90;;;;;;5081839;28;20165;-60
2021/10/12 11:46:20;;;;;;;7.57;6.30;;;14.20;99.90;;;;;;5078565;28;20400;-60
2021/10/12 11:48:46;;;;;;;7.13;5.67;;;14.30;99.90;;;;;;5083076;28;20466;-60
2021/10/12 11:51:22;;;;;;;7.90;4.93;;;14.40;99.90;;;;;;5098385;28;20500;-59
2021/10/12 11:53:48;;;;;;;9.57;5.43;;;14.60;99.90;;;;;;5099399;28;20182;-61
2021/10/12 11:56:15;;;;;;;7.67;5.27;;;14.60;99.90;;;;;;5101603;28;20428;-61
2021/10/12 11:58:42;;;;;;;6.50;4.60;;;14.90;99.90;;;;;;5102574;28;20421;-59
2021/10/12 12:01:10;;;;;;;7.23;4.30;;;15.10;99.90;;;;;;5102519;28;20403;-61
2021/10/12 12:03:36;;;;;;;7.83;5.23;;;15.40;99.90;;;;;;5102088;28;20501;-61
2021/10/12 12:06:02;;;;;;;6.80;4.80;;;15.70;99.90;;;;;;5102229;28;20432;-60
2021/10/12 12:08:30;;;;;;;6.87;4.10;;;15.50;99.90;;;;;;5102207;28;20414;-59
2021/10/12 12:10:58;;;;;;;5.30;3.90;;;15.70;99.90;;;;;;5102553;28;20456;-60
2021/10/12 12:13:30;;;;;;;7.47;4.23;;;15.90;99.90;;;;;;5101610;28;20413;-60
2021/10/12 12:15:57;;;;;;;4.50;3.63;;;17.20;99.90;;;;;;5102280;28;20405;-61
2021/10/12 12:18:27;;;;;;;5.50;4.20;;;18.40;99.90;;;;;;5101779;28;20577;-61
2021/10/12 12:21:00;;;;;;;9.90;3.63;;;18.80;99.90;;;;;;5102069;28;20591;-61
2021/10/12 12:23:42;;;;;;;5.33;4.10;;;19.00;99.90;;;;;;5102917;28;20445;-60
2021/10/12 12:26:10;;;;;;;5.37;3.73;;;17.70;99.90;;;;;;5103690;28;20395;-62
2021/10/12 12:28:37;;;;;;;5.80;4.43;;;17.50;99.90;;;;;;5098419;28;20565;-63
2021/10/12 12:31:22;;;;;;;7.90;4.10;;;17.00;99.90;;;;;;5102476;28;21002;-62
2021/10/12 12:33:49;;;;;;;5.43;4.90;;;16.80;99.90;;;;;;5102134;28;20530;-63
2021/10/12 12:36:16;;;;;;;6.10;3.60;;;16.70;99.90;;;;;;5102403;28;20762;-63